sensor_id;sensor_type;location;lat;lon;timestamp;P1;durP1;ratioP1;P2;durP2;ratioP2
7941;SDS011;4016;50.758;7.150;2023-11-21T00:01:02;5.77;;;4.67;;
7941;SDS011;4016;50.758;7.150;2023-11-21T00:06:04;6.10;;;4.33;;
7941;SDS011;4016;50.758;7.150;2023-11-21T00:11:08;4.53;;;4.13;;
7941;SDS011;4016;50.758;7.150;2023-11-21T00:16:09;6.27;;;4.10;;
7941;SDS011;4016;50.758;7.150;2023-11-21T00:21:09;7.20;;;4.10;;
7941;SDS011;4016;50.758;7.150;2023-11-21T00:26:12;6.07;;;4.13;;
7941;SDS011;4016;50.758;7.150;2023-11-21T00:31:14;6.50;;;4.50;;
7941;SDS011;4016;50.758;7.150;2023-11-21T00:36:14;8.27;;;7.17;;
7941;SDS011;4016;50.758;7.150;2023-11-21T00:41:14;9.30;;;7.10;;
7941;SDS011;4016;50.758;7.150;2023-11-21T00:46:15;8.77;;;5.80;;
7941;SDS011;4016;50.758;7.150;2023-11-21T00:51:15;7.23;;;5.07;;
7941;SDS011;4016;50.758;7.150;2023-11-21T00:56:15;6.07;;;5.07;;
7941;SDS011;4016;50.758;7.150;2023-11-21T01:01:16;7.73;;;5.57;;
7941;SDS011;4016;50.758;7.150;2023-11-21T01:06:16;7.50;;;5.93;;
7941;SDS011;4016;50.758;7.150;2023-11-21T01:11:17;7.07;;;6.07;;
7941;SDS011;4016;50.758;7.150;2023-11-21T01:16:17;7.07;;;5.50;;
7941;SDS011;4016;50.758;7.150;2023-11-21T01:21:18;6.90;;;5.20;;
7941;SDS011;4016;50.758;7.150;2023-11-21T01:26:18;7.17;;;5.77;;
7941;SDS011;4016;50.758;7.150;2023-11-21T01:31:19;8.13;;;5.87;;
7941;SDS011;4016;50.758;7.150;2023-11-21T01:36:20;7.27;;;5.60;;
7941;SDS011;4016;50.758;7.150;2023-11-21T01:41:21;6.83;;;5.40;;
7941;SDS011;4016;50.758;7.150;2023-11-21T01:46:21;7.20;;;5.30;;
7941;SDS011;4016;50.758;7.150;2023-11-21T01:51:23;8.17;;;6.23;;
7941;SDS011;4016;50.758;7.150;2023-11-21T01:56:23;6.93;;;6.03;;
7941;SDS011;4016;50.758;7.150;2023-11-21T02:01:23;8.50;;;6.97;;
7941;SDS011;4016;50.758;7.150;2023-11-21T02:06:25;7.93;;;7.07;;
7941;SDS011;4016;50.758;7.150;2023-11-21T02:11:26;7.33;;;6.40;;
7941;SDS011;4016;50.758;7.150;2023-11-21T02:16:27;8.83;;;7.30;;
7941;SDS011;4016;50.758;7.150;2023-11-21T02:21:31;7.00;;;6.30;;
7941;SDS011;4016;50.758;7.150;2023-11-21T02:26:31;8.27;;;6.83;;
7941;SDS011;4016;50.758;7.150;2023-11-21T02:31:32;8.80;;;7.23;;
7941;SDS011;4016;50.758;7.150;2023-11-21T02:36:32;10.57;;;8.03;;
7941;SDS011;4016;50.758;7.150;2023-11-21T02:41:33;8.47;;;6.70;;
7941;SDS011;4016;50.758;7.150;2023-11-21T02:46:34;9.23;;;6.87;;
7941;SDS011;4016;50.758;7.150;2023-11-21T02:51:35;11.23;;;7.27;;
7941;SDS011;4016;50.758;7.150;2023-11-21T02:56:37;10.93;;;6.73;;
7941;SDS011;4016;50.758;7.150;2023-11-21T03:01:39;8.50;;;6.97;;
7941;SDS011;4016;50.758;7.150;2023-11-21T03:06:40;9.23;;;6.87;;
7941;SDS011;4016;50.758;7.150;2023-11-21T03:11:40;9.43;;;6.40;;
7941;SDS011;4016;50.758;7.150;2023-11-21T03:16:40;8.10;;;6.40;;
7941;SDS011;4016;50.758;7.150;2023-11-21T03:21:41;7.63;;;6.47;;
7941;SDS011;4016;50.758;7.150;2023-11-21T03:26:41;7.50;;;6.37;;
7941;SDS011;4016;50.758;7.150;2023-11-21T03:31:41;10.07;;;7.50;;
7941;SDS011;4016;50.758;7.150;2023-11-21T03:36:43;9.90;;;6.77;;
7941;SDS011;4016;50.758;7.150;2023-11-21T03:41:43;7.40;;;6.60;;
7941;SDS011;4016;50.758;7.150;2023-11-21T03:46:44;8.20;;;6.57;;
7941;SDS011;4016;50.758;7.150;2023-11-21T03:51:44;12.33;;;7.33;;
7941;SDS011;4016;50.758;7.150;2023-11-21T03:56:44;8.30;;;7.13;;
7941;SDS011;4016;50.758;7.150;2023-11-21T04:01:45;10.47;;;7.87;;
7941;SDS011;4016;50.758;7.150;2023-11-21T04:06:45;8.77;;;7.53;;
7941;SDS011;4016;50.758;7.150;2023-11-21T04:11:45;16.20;;;8.90;;
7941;SDS011;4016;50.758;7.150;2023-11-21T04:16:46;11.23;;;7.60;;
7941;SDS011;4016;50.758;7.150;2023-11-21T04:21:46;10.43;;;6.83;;
7941;SDS011;4016;50.758;7.150;2023-11-21T04:26:47;10.10;;;7.83;;
7941;SDS011;4016;50.758;7.150;2023-11-21T04:31:47;9.50;;;7.47;;
7941;SDS011;4016;50.758;7.150;2023-11-21T04:36:49;10.03;;;7.93;;
7941;SDS011;4016;50.758;7.150;2023-11-21T04:41:50;11.17;;;8.10;;
7941;SDS011;4016;50.758;7.150;2023-11-21T04:46:50;8.60;;;7.50;;
7941;SDS011;4016;50.758;7.150;2023-11-21T04:51:50;11.83;;;8.40;;
7941;SDS011;4016;50.758;7.150;2023-11-21T04:56:51;9.60;;;8.10;;
7941;SDS011;4016;50.758;7.150;2023-11-21T05:01:51;9.13;;;7.70;;
7941;SDS011;4016;50.758;7.150;2023-11-21T05:06:52;13.77;;;7.73;;
7941;SDS011;4016;50.758;7.150;2023-11-21T05:11:52;12.57;;;7.43;;
7941;SDS011;4016;50.758;7.150;2023-11-21T05:16:54;8.67;;;7.60;;
7941;SDS011;4016;50.758;7.150;2023-11-21T05:21:54;9.13;;;8.13;;
7941;SDS011;4016;50.758;7.150;2023-11-21T05:26:55;10.37;;;7.83;;
7941;SDS011;4016;50.758;7.150;2023-11-21T05:31:56;9.07;;;7.67;;
7941;SDS011;4016;50.758;7.150;2023-11-21T05:36:56;12.27;;;8.77;;
7941;SDS011;4016;50.758;7.150;2023-11-21T05:41:58;10.70;;;8.17;;
7941;SDS011;4016;50.758;7.150;2023-11-21T05:47:00;14.83;;;9.13;;
7941;SDS011;4016;50.758;7.150;2023-11-21T05:52:00;11.47;;;8.37;;
7941;SDS011;4016;50.758;7.150;2023-11-21T05:57:00;10.53;;;8.27;;
7941;SDS011;4016;50.758;7.150;2023-11-21T06:02:01;12.07;;;9.10;;
7941;SDS011;4016;50.758;7.150;2023-11-21T06:07:02;11.20;;;8.90;;
7941;SDS011;4016;50.758;7.150;2023-11-21T06:12:02;10.47;;;8.80;;
7941;SDS011;4016;50.758;7.150;2023-11-21T06:17:04;12.53;;;9.43;;
7941;SDS011;4016;50.758;7.150;2023-11-21T06:22:04;11.90;;;9.10;;
7941;SDS011;4016;50.758;7.150;2023-11-21T06:27:04;14.30;;;9.13;;
7941;SDS011;4016;50.758;7.150;2023-11-21T06:32:05;9.90;;;8.67;;
7941;SDS011;4016;50.758;7.150;2023-11-21T06:37:06;10.80;;;9.27;;
7941;SDS011;4016;50.758;7.150;2023-11-21T06:42:06;12.83;;;9.57;;
7941;SDS011;4016;50.758;7.150;2023-11-21T06:47:07;12.90;;;9.33;;
7941;SDS011;4016;50.758;7.150;2023-11-21T06:52:07;11.50;;;9.03;;
7941;SDS011;4016;50.758;7.150;2023-11-21T06:57:08;11.73;;;9.17;;
7941;SDS011;4016;50.758;7.150;2023-11-21T07:02:08;11.50;;;8.30;;
7941;SDS011;4016;50.758;7.150;2023-11-21T07:07:09;14.13;;;10.17;;
7941;SDS011;4016;50.758;7.150;2023-11-21T07:12:09;20.93;;;13.13;;
7941;SDS011;4016;50.758;7.150;2023-11-21T07:17:11;20.23;;;14.07;;
7941;SDS011;4016;50.758;7.150;2023-11-21T07:22:12;23.03;;;13.43;;
7941;SDS011;4016;50.758;7.150;2023-11-21T07:27:14;19.53;;;13.27;;
7941;SDS011;4016;50.758;7.150;2023-11-21T07:32:14;20.00;;;13.30;;
7941;SDS011;4016;50.758;7.150;2023-11-21T07:37:14;24.43;;;13.73;;
7941;SDS011;4016;50.758;7.150;2023-11-21T07:42:15;18.90;;;14.20;;
7941;SDS011;4016;50.758;7.150;2023-11-21T07:47:16;20.57;;;13.23;;
7941;SDS011;4016;50.758;7.150;2023-11-21T07:52:17;21.13;;;13.60;;
7941;SDS011;4016;50.758;7.150;2023-11-21T07:57:17;19.47;;;12.87;;
7941;SDS011;4016;50.758;7.150;2023-11-21T08:02:18;16.87;;;12.20;;
7941;SDS011;4016;50.758;7.150;2023-11-21T08:07:18;20.80;;;13.37;;
7941;SDS011;4016;50.758;7.150;2023-11-21T08:12:19;18.80;;;12.07;;
7941;SDS011;4016;50.758;7.150;2023-11-21T08:17:20;18.57;;;12.53;;
7941;SDS011;4016;50.758;7.150;2023-11-21T08:22:20;22.50;;;13.37;;
7941;SDS011;4016;50.758;7.150;2023-11-21T08:27:22;18.00;;;13.20;;
7941;SDS011;4016;50.758;7.150;2023-11-21T08:32:22;19.50;;;13.33;;
7941;SDS011;4016;50.758;7.150;2023-11-21T08:37:22;23.20;;;15.20;;
7941;SDS011;4016;50.758;7.150;2023-11-21T08:42:23;19.73;;;14.17;;
7941;SDS011;4016;50.758;7.150;2023-11-21T08:47:24;23.63;;;14.60;;
7941;SDS011;4016;50.758;7.150;2023-11-21T08:52:26;20.87;;;13.03;;
7941;SDS011;4016;50.758;7.150;2023-11-21T08:57:26;22.73;;;14.07;;
7941;SDS011;4016;50.758;7.150;2023-11-21T09:02:27;29.07;;;15.00;;
7941;SDS011;4016;50.758;7.150;2023-11-21T09:07:27;22.67;;;13.73;;
7941;SDS011;4016;50.758;7.150;2023-11-21T09:12:27;23.23;;;14.03;;
7941;SDS011;4016;50.758;7.150;2023-11-21T09:17:28;19.27;;;14.47;;
7941;SDS011;4016;50.758;7.150;2023-11-21T09:22:28;21.53;;;14.17;;
7941;SDS011;4016;50.758;7.150;2023-11-21T09:27:29;23.23;;;13.27;;
7941;SDS011;4016;50.758;7.150;2023-11-21T09:32:30;21.80;;;13.87;;
7941;SDS011;4016;50.758;7.150;2023-11-21T09:37:31;21.97;;;13.80;;
7941;SDS011;4016;50.758;7.150;2023-11-21T09:42:35;22.37;;;14.03;;
7941;SDS011;4016;50.758;7.150;2023-11-21T09:47:38;21.73;;;14.63;;
7941;SDS011;4016;50.758;7.150;2023-11-21T09:52:42;22.17;;;14.60;;
7941;SDS011;4016;50.758;7.150;2023-11-21T09:57:50;25.60;;;17.13;;
7941;SDS011;4016;50.758;7.150;2023-11-21T10:02:50;23.57;;;14.53;;
7941;SDS011;4016;50.758;7.150;2023-11-21T10:07:53;25.97;;;15.50;;
7941;SDS011;4016;50.758;7.150;2023-11-21T10:12:57;23.17;;;15.53;;
7941;SDS011;4016;50.758;7.150;2023-11-21T10:18:03;27.00;;;17.53;;
7941;SDS011;4016;50.758;7.150;2023-11-21T10:23:05;31.77;;;17.83;;
7941;SDS011;4016;50.758;7.150;2023-11-21T10:28:07;23.87;;;16.50;;
7941;SDS011;4016;50.758;7.150;2023-11-21T10:33:10;24.10;;;15.87;;
7941;SDS011;4016;50.758;7.150;2023-11-21T10:38:11;24.13;;;16.53;;
7941;SDS011;4016;50.758;7.150;2023-11-21T10:43:14;27.33;;;17.60;;
7941;SDS011;4016;50.758;7.150;2023-11-21T10:48:18;25.90;;;16.20;;
7941;SDS011;4016;50.758;7.150;2023-11-21T10:53:20;26.60;;;17.23;;
7941;SDS011;4016;50.758;7.150;2023-11-21T10:58:21;27.00;;;16.67;;
7941;SDS011;4016;50.758;7.150;2023-11-21T11:03:21;24.03;;;17.00;;
7941;SDS011;4016;50.758;7.150;2023-11-21T11:08:22;29.83;;;16.83;;
7941;SDS011;4016;50.758;7.150;2023-11-21T11:13:26;26.97;;;15.27;;
7941;SDS011;4016;50.758;7.150;2023-11-21T11:18:26;22.97;;;15.30;;
7941;SDS011;4016;50.758;7.150;2023-11-21T11:23:34;21.30;;;15.23;;
7941;SDS011;4016;50.758;7.150;2023-11-21T11:29:08;22.77;;;15.97;;
7941;SDS011;4016;50.758;7.150;2023-11-21T11:34:20;24.63;;;15.27;;
7941;SDS011;4016;50.758;7.150;2023-11-21T11:39:42;28.23;;;15.20;;
7941;SDS011;4016;50.758;7.150;2023-11-21T11:44:46;26.03;;;17.20;;
7941;SDS011;4016;50.758;7.150;2023-11-21T11:55:21;25.10;;;16.10;;
7941;SDS011;4016;50.758;7.150;2023-11-21T12:05:27;22.60;;;15.93;;
7941;SDS011;4016;50.758;7.150;2023-11-21T12:10:28;27.53;;;18.10;;
7941;SDS011;4016;50.758;7.150;2023-11-21T12:15:39;26.17;;;15.60;;
7941;SDS011;4016;50.758;7.150;2023-11-21T12:20:41;22.00;;;15.57;;
7941;SDS011;4016;50.758;7.150;2023-11-21T12:25:44;26.10;;;16.57;;
7941;SDS011;4016;50.758;7.150;2023-11-21T12:30:45;24.70;;;16.50;;
7941;SDS011;4016;50.758;7.150;2023-11-21T12:35:45;25.90;;;16.87;;
7941;SDS011;4016;50.758;7.150;2023-11-21T12:40:45;23.50;;;16.83;;
7941;SDS011;4016;50.758;7.150;2023-11-21T12:45:46;23.97;;;16.53;;
7941;SDS011;4016;50.758;7.150;2023-11-21T12:50:46;28.07;;;17.57;;
7941;SDS011;4016;50.758;7.150;2023-11-21T12:55:48;27.83;;;15.77;;
7941;SDS011;4016;50.758;7.150;2023-11-21T13:00:49;27.83;;;17.30;;
7941;SDS011;4016;50.758;7.150;2023-11-21T13:05:51;26.67;;;17.93;;
7941;SDS011;4016;50.758;7.150;2023-11-21T13:10:56;30.53;;;17.40;;
7941;SDS011;4016;50.758;7.150;2023-11-21T13:15:59;30.50;;;17.63;;
7941;SDS011;4016;50.758;7.150;2023-11-21T13:21:08;28.63;;;17.43;;
7941;SDS011;4016;50.758;7.150;2023-11-21T13:26:13;32.10;;;18.17;;
7941;SDS011;4016;50.758;7.150;2023-11-21T13:31:15;26.63;;;16.67;;
7941;SDS011;4016;50.758;7.150;2023-11-21T13:36:25;25.40;;;16.17;;
7941;SDS011;4016;50.758;7.150;2023-11-21T13:41:30;25.97;;;15.73;;
7941;SDS011;4016;50.758;7.150;2023-11-21T13:46:30;26.53;;;16.30;;
7941;SDS011;4016;50.758;7.150;2023-11-21T13:51:36;26.57;;;15.23;;
7941;SDS011;4016;50.758;7.150;2023-11-21T13:56:48;25.63;;;15.37;;
7941;SDS011;4016;50.758;7.150;2023-11-21T14:01:50;23.57;;;14.90;;
7941;SDS011;4016;50.758;7.150;2023-11-21T14:06:54;22.77;;;14.03;;
7941;SDS011;4016;50.758;7.150;2023-11-21T14:11:55;23.27;;;15.53;;
7941;SDS011;4016;50.758;7.150;2023-11-21T14:16:57;20.40;;;13.03;;
7941;SDS011;4016;50.758;7.150;2023-11-21T14:21:58;22.53;;;14.07;;
7941;SDS011;4016;50.758;7.150;2023-11-21T14:26:59;21.30;;;14.93;;
7941;SDS011;4016;50.758;7.150;2023-11-21T14:32:00;25.17;;;13.93;;
7941;SDS011;4016;50.758;7.150;2023-11-21T14:37:01;23.63;;;15.37;;
7941;SDS011;4016;50.758;7.150;2023-11-21T14:42:03;22.87;;;14.50;;
7941;SDS011;4016;50.758;7.150;2023-11-21T14:47:05;24.90;;;14.43;;
7941;SDS011;4016;50.758;7.150;2023-11-21T14:52:12;24.93;;;15.17;;
7941;SDS011;4016;50.758;7.150;2023-11-21T14:57:33;24.37;;;13.97;;
7941;SDS011;4016;50.758;7.150;2023-11-21T15:02:33;25.03;;;14.80;;
7941;SDS011;4016;50.758;7.150;2023-11-21T15:07:50;26.93;;;14.90;;
7941;SDS011;4016;50.758;7.150;2023-11-21T15:12:54;27.13;;;15.67;;
7941;SDS011;4016;50.758;7.150;2023-11-21T15:17:55;25.87;;;15.63;;
7941;SDS011;4016;50.758;7.150;2023-11-21T15:22:55;26.57;;;15.67;;
7941;SDS011;4016;50.758;7.150;2023-11-21T15:27:55;29.13;;;15.70;;
7941;SDS011;4016;50.758;7.150;2023-11-21T15:32:56;33.77;;;17.17;;
7941;SDS011;4016;50.758;7.150;2023-11-21T15:37:56;28.43;;;16.50;;
7941;SDS011;4016;50.758;7.150;2023-11-21T15:42:58;32.67;;;17.00;;
7941;SDS011;4016;50.758;7.150;2023-11-21T15:47:59;32.60;;;16.90;;
7941;SDS011;4016;50.758;7.150;2023-11-21T15:53:01;33.50;;;18.90;;
7941;SDS011;4016;50.758;7.150;2023-11-21T15:58:03;36.67;;;19.30;;
7941;SDS011;4016;50.758;7.150;2023-11-21T16:03:06;35.17;;;20.80;;
7941;SDS011;4016;50.758;7.150;2023-11-21T16:08:07;40.53;;;21.60;;
7941;SDS011;4016;50.758;7.150;2023-11-21T16:13:07;32.87;;;19.87;;
7941;SDS011;4016;50.758;7.150;2023-11-21T16:18:08;38.57;;;19.17;;
7941;SDS011;4016;50.758;7.150;2023-11-21T16:23:08;33.23;;;19.17;;
7941;SDS011;4016;50.758;7.150;2023-11-21T16:28:09;38.60;;;20.47;;
7941;SDS011;4016;50.758;7.150;2023-11-21T16:33:09;35.90;;;19.03;;
7941;SDS011;4016;50.758;7.150;2023-11-21T16:38:10;42.40;;;19.80;;
7941;SDS011;4016;50.758;7.150;2023-11-21T16:43:12;30.33;;;18.07;;
7941;SDS011;4016;50.758;7.150;2023-11-21T16:48:12;35.43;;;20.17;;
7941;SDS011;4016;50.758;7.150;2023-11-21T16:53:13;42.30;;;20.57;;
7941;SDS011;4016;50.758;7.150;2023-11-21T16:58:13;41.63;;;18.60;;
7941;SDS011;4016;50.758;7.150;2023-11-21T17:03:15;26.13;;;16.87;;
7941;SDS011;4016;50.758;7.150;2023-11-21T17:08:16;26.90;;;16.30;;
7941;SDS011;4016;50.758;7.150;2023-11-21T17:13:17;27.50;;;15.37;;
7941;SDS011;4016;50.758;7.150;2023-11-21T17:18:17;26.40;;;14.67;;
7941;SDS011;4016;50.758;7.150;2023-11-21T17:23:18;24.47;;;14.50;;
7941;SDS011;4016;50.758;7.150;2023-11-21T17:28:18;26.63;;;14.43;;
7941;SDS011;4016;50.758;7.150;2023-11-21T17:33:19;26.53;;;16.27;;
7941;SDS011;4016;50.758;7.150;2023-11-21T17:38:19;33.40;;;19.00;;
7941;SDS011;4016;50.758;7.150;2023-11-21T17:43:20;26.13;;;15.50;;
7941;SDS011;4016;50.758;7.150;2023-11-21T17:48:20;22.73;;;15.20;;
7941;SDS011;4016;50.758;7.150;2023-11-21T17:53:21;19.23;;;13.33;;
7941;SDS011;4016;50.758;7.150;2023-11-21T17:58:22;20.00;;;13.13;;
7941;SDS011;4016;50.758;7.150;2023-11-21T18:03:23;17.63;;;11.73;;
7941;SDS011;4016;50.758;7.150;2023-11-21T18:08:23;14.50;;;10.97;;
7941;SDS011;4016;50.758;7.150;2023-11-21T18:13:23;14.00;;;9.07;;
7941;SDS011;4016;50.758;7.150;2023-11-21T18:18:24;10.10;;;6.93;;
7941;SDS011;4016;50.758;7.150;2023-11-21T18:23:27;8.80;;;6.93;;
7941;SDS011;4016;50.758;7.150;2023-11-21T18:28:27;8.33;;;7.13;;
7941;SDS011;4016;50.758;7.150;2023-11-21T18:33:28;7.93;;;6.37;;
7941;SDS011;4016;50.758;7.150;2023-11-21T18:38:28;10.37;;;6.50;;
7941;SDS011;4016;50.758;7.150;2023-11-21T18:43:29;7.90;;;6.23;;
7941;SDS011;4016;50.758;7.150;2023-11-21T18:48:29;9.77;;;6.80;;
7941;SDS011;4016;50.758;7.150;2023-11-21T18:53:30;8.00;;;6.20;;
7941;SDS011;4016;50.758;7.150;2023-11-21T18:58:34;8.87;;;6.53;;
7941;SDS011;4016;50.758;7.150;2023-11-21T19:03:35;8.37;;;6.33;;
7941;SDS011;4016;50.758;7.150;2023-11-21T19:08:36;9.27;;;6.00;;
7941;SDS011;4016;50.758;7.150;2023-11-21T19:13:36;7.20;;;6.40;;
7941;SDS011;4016;50.758;7.150;2023-11-21T19:18:37;6.93;;;6.00;;
7941;SDS011;4016;50.758;7.150;2023-11-21T19:23:38;5.90;;;5.20;;
7941;SDS011;4016;50.758;7.150;2023-11-21T19:28:38;6.67;;;4.90;;
7941;SDS011;4016;50.758;7.150;2023-11-21T19:33:39;5.77;;;4.40;;
7941;SDS011;4016;50.758;7.150;2023-11-21T19:38:39;5.17;;;4.40;;
7941;SDS011;4016;50.758;7.150;2023-11-21T19:43:40;4.27;;;3.87;;
7941;SDS011;4016;50.758;7.150;2023-11-21T19:48:41;4.60;;;4.03;;
7941;SDS011;4016;50.758;7.150;2023-11-21T19:53:42;5.40;;;4.27;;
7941;SDS011;4016;50.758;7.150;2023-11-21T19:58:43;4.00;;;3.60;;
7941;SDS011;4016;50.758;7.150;2023-11-21T20:03:43;6.43;;;4.77;;
7941;SDS011;4016;50.758;7.150;2023-11-21T20:08:44;4.30;;;3.90;;
7941;SDS011;4016;50.758;7.150;2023-11-21T20:13:51;4.90;;;4.10;;
7941;SDS011;4016;50.758;7.150;2023-11-21T20:18:51;5.10;;;4.60;;
7941;SDS011;4016;50.758;7.150;2023-11-21T20:23:52;5.33;;;4.70;;
7941;SDS011;4016;50.758;7.150;2023-11-21T20:28:53;6.93;;;5.83;;
7941;SDS011;4016;50.758;7.150;2023-11-21T20:33:53;5.60;;;4.73;;
7941;SDS011;4016;50.758;7.150;2023-11-21T20:38:54;5.33;;;4.57;;
7941;SDS011;4016;50.758;7.150;2023-11-21T20:43:54;5.50;;;4.67;;
7941;SDS011;4016;50.758;7.150;2023-11-21T20:48:55;5.30;;;4.80;;
7941;SDS011;4016;50.758;7.150;2023-11-21T20:53:56;5.27;;;4.60;;
7941;SDS011;4016;50.758;7.150;2023-11-21T20:59:00;6.70;;;5.47;;
7941;SDS011;4016;50.758;7.150;2023-11-21T21:04:07;6.17;;;5.07;;
7941;SDS011;4016;50.758;7.150;2023-11-21T21:09:08;5.27;;;4.77;;
7941;SDS011;4016;50.758;7.150;2023-11-21T21:14:09;5.80;;;5.13;;
7941;SDS011;4016;50.758;7.150;2023-11-21T21:19:09;6.50;;;5.60;;
7941;SDS011;4016;50.758;7.150;2023-11-21T21:24:10;6.53;;;5.33;;
7941;SDS011;4016;50.758;7.150;2023-11-21T21:29:11;6.43;;;5.23;;
7941;SDS011;4016;50.758;7.150;2023-11-21T21:34:11;6.27;;;5.10;;
7941;SDS011;4016;50.758;7.150;2023-11-21T21:39:13;6.10;;;5.20;;
7941;SDS011;4016;50.758;7.150;2023-11-21T21:44:14;5.90;;;5.30;;
7941;SDS011;4016;50.758;7.150;2023-11-21T21:49:15;6.47;;;5.53;;
7941;SDS011;4016;50.758;7.150;2023-11-21T21:54:16;6.43;;;5.57;;
7941;SDS011;4016;50.758;7.150;2023-11-21T21:59:16;5.87;;;5.03;;
7941;SDS011;4016;50.758;7.150;2023-11-21T22:04:16;8.03;;;6.10;;
7941;SDS011;4016;50.758;7.150;2023-11-21T22:09:17;5.70;;;5.03;;
7941;SDS011;4016;50.758;7.150;2023-11-21T22:14:19;6.23;;;5.13;;
7941;SDS011;4016;50.758;7.150;2023-11-21T22:19:19;6.33;;;5.50;;
7941;SDS011;4016;50.758;7.150;2023-11-21T22:24:19;5.23;;;4.73;;
7941;SDS011;4016;50.758;7.150;2023-11-21T22:29:21;6.27;;;5.23;;
7941;SDS011;4016;50.758;7.150;2023-11-21T22:34:21;7.13;;;5.80;;
7941;SDS011;4016;50.758;7.150;2023-11-21T22:39:22;6.70;;;5.00;;
7941;SDS011;4016;50.758;7.150;2023-11-21T22:44:23;6.93;;;5.17;;
7941;SDS011;4016;50.758;7.150;2023-11-21T22:49:23;6.80;;;4.37;;
7941;SDS011;4016;50.758;7.150;2023-11-21T22:54:24;5.13;;;4.57;;
7941;SDS011;4016;50.758;7.150;2023-11-21T22:59:24;5.60;;;4.47;;
7941;SDS011;4016;50.758;7.150;2023-11-21T23:04:24;5.93;;;4.73;;
7941;SDS011;4016;50.758;7.150;2023-11-21T23:09:25;5.80;;;4.93;;
7941;SDS011;4016;50.758;7.150;2023-11-21T23:14:25;6.03;;;4.83;;
7941;SDS011;4016;50.758;7.150;2023-11-21T23:19:26;5.30;;;4.63;;
7941;SDS011;4016;50.758;7.150;2023-11-21T23:24:27;5.60;;;4.80;;
7941;SDS011;4016;50.758;7.150;2023-11-21T23:29:27;5.07;;;4.20;;
7941;SDS011;4016;50.758;7.150;2023-11-21T23:34:28;4.77;;;4.27;;
7941;SDS011;4016;50.758;7.150;2023-11-21T23:39:28;5.23;;;4.63;;
7941;SDS011;4016;50.758;7.150;2023-11-21T23:44:29;5.77;;;5.10;;
7941;SDS011;4016;50.758;7.150;2023-11-21T23:49:30;7.53;;;5.00;;
7941;SDS011;4016;50.758;7.150;2023-11-21T23:54:30;5.97;;;4.87;;
7941;SDS011;4016;50.758;7.150;2023-11-21T23:59:31;6.23;;;5.10;;
